sensor_id;sensor_type;location;lat;lon;timestamp;pressure;altitude;pressure_sealevel;temperature;humidity
45323;BME280;31382;50.200;8.674;2023-12-28T00:03:49;100256.38;;;6.08;71.69
45323;BME280;31382;50.200;8.674;2023-12-28T00:08:51;100262.81;;;6.06;72.25
45323;BME280;31382;50.200;8.674;2023-12-28T00:14:04;100266.50;;;6.05;72.13
45323;BME280;31382;50.200;8.674;2023-12-28T00:19:06;100242.69;;;6.11;72.04
45323;BME280;31382;50.200;8.674;2023-12-28T00:24:08;100248.13;;;6.20;72.79
45323;BME280;31382;50.200;8.674;2023-12-28T00:29:09;100247.47;;;6.35;72.81
45323;BME280;31382;50.200;8.674;2023-12-28T00:34:11;100249.78;;;6.48;72.93
45323;BME280;31382;50.200;8.674;2023-12-28T00:39:13;100241.84;;;6.57;72.36
45323;BME280;31382;50.200;8.674;2023-12-28T00:44:14;100236.94;;;6.70;72.42
45323;BME280;31382;50.200;8.674;2023-12-28T00:49:16;100231.13;;;6.74;73.35
45323;BME280;31382;50.200;8.674;2023-12-28T00:54:17;100241.88;;;6.83;72.91
45323;BME280;31382;50.200;8.674;2023-12-28T00:59:19;100233.84;;;7.01;72.12
45323;BME280;31382;50.200;8.674;2023-12-28T01:04:20;100236.28;;;7.12;72.43
45323;BME280;31382;50.200;8.674;2023-12-28T01:09:24;100249.09;;;7.34;72.07
45323;BME280;31382;50.200;8.674;2023-12-28T01:14:25;100253.50;;;7.44;71.57
45323;BME280;31382;50.200;8.674;2023-12-28T01:19:27;100255.28;;;7.61;71.58
45323;BME280;31382;50.200;8.674;2023-12-28T01:24:28;100272.75;;;7.73;71.35
45323;BME280;31382;50.200;8.674;2023-12-28T01:29:30;100266.81;;;7.88;71.21
45323;BME280;31382;50.200;8.674;2023-12-28T01:34:31;100276.69;;;7.95;71.03
45323;BME280;31382;50.200;8.674;2023-12-28T01:39:33;100285.91;;;8.01;70.15
45323;BME280;31382;50.200;8.674;2023-12-28T01:44:34;100284.78;;;8.04;70.14
45323;BME280;31382;50.200;8.674;2023-12-28T01:49:36;100287.47;;;8.12;70.21
45323;BME280;31382;50.200;8.674;2023-12-28T01:54:38;100311.06;;;8.17;69.69
45323;BME280;31382;50.200;8.674;2023-12-28T01:59:40;100291.00;;;8.21;69.23
45323;BME280;31382;50.200;8.674;2023-12-28T02:04:43;100287.22;;;8.31;68.92
45323;BME280;31382;50.200;8.674;2023-12-28T02:09:44;100292.38;;;8.33;68.65
45323;BME280;31382;50.200;8.674;2023-12-28T02:14:46;100319.06;;;8.43;68.24
45323;BME280;31382;50.200;8.674;2023-12-28T02:19:53;100310.72;;;8.54;67.70
45323;BME280;31382;50.200;8.674;2023-12-28T02:25:04;100339.22;;;8.63;67.47
45323;BME280;31382;50.200;8.674;2023-12-28T02:30:10;100327.19;;;8.67;67.01
45323;BME280;31382;50.200;8.674;2023-12-28T02:35:33;100322.66;;;8.68;66.93
45323;BME280;31382;50.200;8.674;2023-12-28T02:40:37;100312.75;;;8.68;66.82
45323;BME280;31382;50.200;8.674;2023-12-28T02:45:39;100315.44;;;8.77;66.39
45323;BME280;31382;50.200;8.674;2023-12-28T02:50:41;100311.13;;;8.84;66.10
45323;BME280;31382;50.200;8.674;2023-12-28T02:55:42;100314.97;;;8.89;65.71
45323;BME280;31382;50.200;8.674;2023-12-28T03:00:44;100299.72;;;8.90;65.45
45323;BME280;31382;50.200;8.674;2023-12-28T03:05:45;100321.16;;;8.90;65.62
45323;BME280;31382;50.200;8.674;2023-12-28T03:10:47;100305.59;;;8.93;65.39
45323;BME280;31382;50.200;8.674;2023-12-28T03:15:48;100302.25;;;9.00;65.13
45323;BME280;31382;50.200;8.674;2023-12-28T03:20:50;100298.38;;;9.02;64.93
45323;BME280;31382;50.200;8.674;2023-12-28T03:25:51;100302.59;;;9.05;64.96
45323;BME280;31382;50.200;8.674;2023-12-28T03:30:53;100298.06;;;9.05;64.78
45323;BME280;31382;50.200;8.674;2023-12-28T03:35:54;100295.53;;;9.12;64.54
45323;BME280;31382;50.200;8.674;2023-12-28T03:40:56;100301.41;;;9.16;64.36
45323;BME280;31382;50.200;8.674;2023-12-28T03:45:59;100311.97;;;9.17;64.31
45323;BME280;31382;50.200;8.674;2023-12-28T03:51:00;100309.28;;;9.25;64.09
45323;BME280;31382;50.200;8.674;2023-12-28T03:56:02;100342.97;;;9.28;64.14
45323;BME280;31382;50.200;8.674;2023-12-28T04:01:03;100316.16;;;9.44;63.92
45323;BME280;31382;50.200;8.674;2023-12-28T04:06:05;100284.13;;;9.43;64.19
45323;BME280;31382;50.200;8.674;2023-12-28T04:11:06;100290.81;;;9.47;64.47
45323;BME280;31382;50.200;8.674;2023-12-28T04:16:12;100283.41;;;9.57;64.48
45323;BME280;31382;50.200;8.674;2023-12-28T04:21:14;100277.56;;;9.62;64.90
45323;BME280;31382;50.200;8.674;2023-12-28T04:26:18;100285.25;;;9.65;64.86
45323;BME280;31382;50.200;8.674;2023-12-28T04:31:20;100289.59;;;9.74;64.88
45323;BME280;31382;50.200;8.674;2023-12-28T04:36:22;100283.41;;;9.73;64.71
45323;BME280;31382;50.200;8.674;2023-12-28T04:41:24;100304.84;;;9.82;64.96
45323;BME280;31382;50.200;8.674;2023-12-28T04:46:25;100340.38;;;9.92;65.08
45323;BME280;31382;50.200;8.674;2023-12-28T04:51:26;100348.75;;;10.05;64.93
45323;BME280;31382;50.200;8.674;2023-12-28T04:56:28;100358.25;;;10.16;64.58
45323;BME280;31382;50.200;8.674;2023-12-28T05:01:29;100380.75;;;10.23;64.73
45323;BME280;31382;50.200;8.674;2023-12-28T05:06:34;100378.56;;;10.27;65.23
45323;BME280;31382;50.200;8.674;2023-12-28T05:11:35;100380.06;;;10.29;65.03
45323;BME280;31382;50.200;8.674;2023-12-28T05:16:37;100372.47;;;10.41;64.96
45323;BME280;31382;50.200;8.674;2023-12-28T05:21:38;100371.66;;;10.41;65.02
45323;BME280;31382;50.200;8.674;2023-12-28T05:26:40;100375.13;;;10.49;64.98
45323;BME280;31382;50.200;8.674;2023-12-28T05:31:41;100383.84;;;10.51;65.50
45323;BME280;31382;50.200;8.674;2023-12-28T05:36:42;100372.09;;;10.52;65.92
45323;BME280;31382;50.200;8.674;2023-12-28T05:41:47;100380.47;;;10.58;65.71
45323;BME280;31382;50.200;8.674;2023-12-28T05:46:49;100385.50;;;10.61;66.22
45323;BME280;31382;50.200;8.674;2023-12-28T05:51:50;100373.22;;;10.58;66.62
45323;BME280;31382;50.200;8.674;2023-12-28T05:56:51;100376.59;;;10.60;67.05
45323;BME280;31382;50.200;8.674;2023-12-28T06:01:53;100374.88;;;10.67;67.04
45323;BME280;31382;50.200;8.674;2023-12-28T06:06:54;100382.78;;;10.69;67.29
45323;BME280;31382;50.200;8.674;2023-12-28T06:11:56;100377.22;;;10.70;67.32
45323;BME280;31382;50.200;8.674;2023-12-28T06:16:57;100366.28;;;10.72;67.07
45323;BME280;31382;50.200;8.674;2023-12-28T06:21:59;100348.44;;;10.79;67.17
45323;BME280;31382;50.200;8.674;2023-12-28T06:27:00;100351.94;;;10.80;67.70
45323;BME280;31382;50.200;8.674;2023-12-28T06:32:02;100347.13;;;10.75;67.72
45323;BME280;31382;50.200;8.674;2023-12-28T06:37:03;100352.31;;;10.77;67.51
45323;BME280;31382;50.200;8.674;2023-12-28T06:42:05;100358.19;;;10.80;67.74
45323;BME280;31382;50.200;8.674;2023-12-28T06:47:07;100365.06;;;10.83;67.56
45323;BME280;31382;50.200;8.674;2023-12-28T06:52:08;100363.13;;;10.91;67.65
45323;BME280;31382;50.200;8.674;2023-12-28T06:57:09;100367.63;;;10.99;67.58
45323;BME280;31382;50.200;8.674;2023-12-28T07:02:11;100376.66;;;11.06;67.24
45323;BME280;31382;50.200;8.674;2023-12-28T07:07:12;100386.59;;;11.06;67.18
45323;BME280;31382;50.200;8.674;2023-12-28T07:12:14;100392.50;;;11.01;67.61
45323;BME280;31382;50.200;8.674;2023-12-28T07:17:16;100392.66;;;11.00;67.77
45323;BME280;31382;50.200;8.674;2023-12-28T07:22:18;100395.13;;;11.09;67.61
45323;BME280;31382;50.200;8.674;2023-12-28T07:27:20;100385.41;;;11.08;67.47
45323;BME280;31382;50.200;8.674;2023-12-28T07:32:21;100411.09;;;11.11;67.64
45323;BME280;31382;50.200;8.674;2023-12-28T07:37:24;100424.25;;;11.06;67.52
45323;BME280;31382;50.200;8.674;2023-12-28T07:42:26;100432.13;;;11.07;67.54
45323;BME280;31382;50.200;8.674;2023-12-28T07:47:27;100421.03;;;11.10;67.80
45323;BME280;31382;50.200;8.674;2023-12-28T07:52:29;100429.69;;;11.21;67.71
45323;BME280;31382;50.200;8.674;2023-12-28T07:57:30;100418.41;;;11.25;67.58
45323;BME280;31382;50.200;8.674;2023-12-28T08:02:32;100421.47;;;11.22;67.29
45323;BME280;31382;50.200;8.674;2023-12-28T08:07:34;100416.63;;;11.18;67.69
45323;BME280;31382;50.200;8.674;2023-12-28T08:12:35;100401.97;;;11.20;67.84
45323;BME280;31382;50.200;8.674;2023-12-28T08:17:37;100395.22;;;11.24;67.64
45323;BME280;31382;50.200;8.674;2023-12-28T08:22:39;100387.63;;;11.28;68.16
45323;BME280;31382;50.200;8.674;2023-12-28T08:27:40;100395.97;;;11.33;67.71
45323;BME280;31382;50.200;8.674;2023-12-28T08:32:43;100397.34;;;11.29;68.11
45323;BME280;31382;50.200;8.674;2023-12-28T08:37:44;100393.00;;;11.28;68.45
45323;BME280;31382;50.200;8.674;2023-12-28T08:42:47;100408.59;;;11.32;68.09
45323;BME280;31382;50.200;8.674;2023-12-28T08:47:49;100416.09;;;11.45;67.80
45323;BME280;31382;50.200;8.674;2023-12-28T08:52:50;100415.44;;;11.43;68.34
45323;BME280;31382;50.200;8.674;2023-12-28T08:57:51;100412.91;;;11.42;68.34
45323;BME280;31382;50.200;8.674;2023-12-28T09:02:53;100416.91;;;11.46;68.18
45323;BME280;31382;50.200;8.674;2023-12-28T09:07:54;100409.78;;;11.53;68.25
45323;BME280;31382;50.200;8.674;2023-12-28T09:12:56;100422.56;;;11.51;68.21
45323;BME280;31382;50.200;8.674;2023-12-28T09:17:58;100423.53;;;11.58;68.12
45323;BME280;31382;50.200;8.674;2023-12-28T09:23:00;100426.88;;;11.60;67.72
45323;BME280;31382;50.200;8.674;2023-12-28T09:28:01;100437.06;;;11.73;67.75
45323;BME280;31382;50.200;8.674;2023-12-28T09:33:03;100432.13;;;11.77;67.40
45323;BME280;31382;50.200;8.674;2023-12-28T09:38:05;100432.59;;;11.80;67.65
45323;BME280;31382;50.200;8.674;2023-12-28T09:43:26;100439.69;;;11.81;67.28
45323;BME280;31382;50.200;8.674;2023-12-28T09:48:32;100434.00;;;11.76;67.60
45323;BME280;31382;50.200;8.674;2023-12-28T09:53:33;100441.72;;;11.79;67.48
45323;BME280;31382;50.200;8.674;2023-12-28T09:58:36;100456.13;;;11.86;67.59
45323;BME280;31382;50.200;8.674;2023-12-28T10:03:38;100467.22;;;11.92;67.50
45323;BME280;31382;50.200;8.674;2023-12-28T10:08:45;100453.78;;;12.06;66.42
45323;BME280;31382;50.200;8.674;2023-12-28T10:13:50;100461.16;;;12.13;66.70
45323;BME280;31382;50.200;8.674;2023-12-28T10:18:52;100465.81;;;12.19;66.96
45323;BME280;31382;50.200;8.674;2023-12-28T10:23:53;100446.19;;;12.25;66.54
45323;BME280;31382;50.200;8.674;2023-12-28T10:28:59;100442.19;;;12.36;66.15
45323;BME280;31382;50.200;8.674;2023-12-28T10:34:01;100443.78;;;12.45;65.52
45323;BME280;31382;50.200;8.674;2023-12-28T10:39:09;100444.78;;;12.44;65.46
45323;BME280;31382;50.200;8.674;2023-12-28T10:44:13;100446.47;;;12.45;65.31
45323;BME280;31382;50.200;8.674;2023-12-28T10:49:21;100441.16;;;12.52;65.09
45323;BME280;31382;50.200;8.674;2023-12-28T10:54:57;100440.97;;;12.83;64.57
45323;BME280;31382;50.200;8.674;2023-12-28T11:00:09;100424.69;;;12.76;64.20
45323;BME280;31382;50.200;8.674;2023-12-28T11:05:12;100439.31;;;12.82;64.25
45323;BME280;31382;50.200;8.674;2023-12-28T11:10:16;100437.31;;;12.90;63.93
45323;BME280;31382;50.200;8.674;2023-12-28T11:15:18;100444.47;;;12.83;63.74
45323;BME280;31382;50.200;8.674;2023-12-28T11:20:20;100443.84;;;12.81;63.58
45323;BME280;31382;50.200;8.674;2023-12-28T11:25:22;100444.13;;;12.86;63.41
45323;BME280;31382;50.200;8.674;2023-12-28T11:30:27;100433.44;;;12.78;63.32
45323;BME280;31382;50.200;8.674;2023-12-28T11:35:36;100432.09;;;12.89;63.11
45323;BME280;31382;50.200;8.674;2023-12-28T11:40:42;100423.38;;;12.87;63.04
45323;BME280;31382;50.200;8.674;2023-12-28T11:45:54;100411.97;;;13.06;62.39
45323;BME280;31382;50.200;8.674;2023-12-28T11:50:58;100404.16;;;13.12;62.29
45323;BME280;31382;50.200;8.674;2023-12-28T11:56:00;100403.69;;;13.08;62.23
45323;BME280;31382;50.200;8.674;2023-12-28T12:01:06;100388.59;;;13.14;61.93
45323;BME280;31382;50.200;8.674;2023-12-28T12:06:08;100384.31;;;13.19;61.27
45323;BME280;31382;50.200;8.674;2023-12-28T12:11:09;100366.19;;;13.35;60.97
45323;BME280;31382;50.200;8.674;2023-12-28T12:16:13;100357.63;;;13.53;60.28
45323;BME280;31382;50.200;8.674;2023-12-28T12:21:15;100347.81;;;13.73;59.63
45323;BME280;31382;50.200;8.674;2023-12-28T12:26:20;100347.50;;;13.61;59.33
45323;BME280;31382;50.200;8.674;2023-12-28T12:31:23;100347.84;;;13.52;59.47
45323;BME280;31382;50.200;8.674;2023-12-28T12:36:25;100335.78;;;13.47;58.85
45323;BME280;31382;50.200;8.674;2023-12-28T12:41:26;100332.31;;;13.60;58.63
45323;BME280;31382;50.200;8.674;2023-12-28T12:46:28;100326.53;;;13.63;58.25
45323;BME280;31382;50.200;8.674;2023-12-28T12:51:30;100326.34;;;13.65;58.32
45323;BME280;31382;50.200;8.674;2023-12-28T12:56:32;100311.22;;;13.71;57.93
45323;BME280;31382;50.200;8.674;2023-12-28T13:01:34;100311.94;;;13.86;57.49
45323;BME280;31382;50.200;8.674;2023-12-28T13:06:36;100309.72;;;13.68;58.02
45323;BME280;31382;50.200;8.674;2023-12-28T13:11:38;100302.06;;;13.72;58.06
45323;BME280;31382;50.200;8.674;2023-12-28T13:16:39;100306.03;;;13.69;58.32
45323;BME280;31382;50.200;8.674;2023-12-28T13:21:41;100312.84;;;13.65;58.29
45323;BME280;31382;50.200;8.674;2023-12-28T13:26:42;100303.31;;;13.69;58.42
45323;BME280;31382;50.200;8.674;2023-12-28T13:31:44;100309.84;;;13.53;58.76
45323;BME280;31382;50.200;8.674;2023-12-28T13:36:47;100302.97;;;13.51;58.93
45323;BME280;31382;50.200;8.674;2023-12-28T13:41:49;100297.53;;;13.44;59.12
45323;BME280;31382;50.200;8.674;2023-12-28T13:46:50;100288.75;;;13.35;59.21
45323;BME280;31382;50.200;8.674;2023-12-28T13:51:52;100305.13;;;13.34;59.47
45323;BME280;31382;50.200;8.674;2023-12-28T13:56:53;100295.78;;;13.36;59.97
45323;BME280;31382;50.200;8.674;2023-12-28T14:01:58;100302.25;;;13.35;59.85
45323;BME280;31382;50.200;8.674;2023-12-28T14:07:00;100305.88;;;13.27;60.43
45323;BME280;31382;50.200;8.674;2023-12-28T14:12:02;100300.41;;;13.21;60.85
45323;BME280;31382;50.200;8.674;2023-12-28T14:17:04;100294.19;;;13.20;61.01
45323;BME280;31382;50.200;8.674;2023-12-28T14:22:06;100286.22;;;13.12;61.17
45323;BME280;31382;50.200;8.674;2023-12-28T14:27:08;100275.81;;;13.09;61.85
45323;BME280;31382;50.200;8.674;2023-12-28T14:32:10;100278.28;;;13.04;61.84
45323;BME280;31382;50.200;8.674;2023-12-28T14:37:12;100272.94;;;12.89;62.39
45323;BME280;31382;50.200;8.674;2023-12-28T14:42:13;100284.03;;;12.79;62.96
45323;BME280;31382;50.200;8.674;2023-12-28T14:47:15;100293.00;;;12.80;63.01
45323;BME280;31382;50.200;8.674;2023-12-28T14:52:16;100285.84;;;12.72;63.40
45323;BME280;31382;50.200;8.674;2023-12-28T14:57:18;100285.09;;;12.78;63.45
45323;BME280;31382;50.200;8.674;2023-12-28T15:02:20;100289.84;;;12.76;63.41
45323;BME280;31382;50.200;8.674;2023-12-28T15:07:21;100287.50;;;12.73;63.69
45323;BME280;31382;50.200;8.674;2023-12-28T15:12:23;100281.00;;;12.67;63.95
45323;BME280;31382;50.200;8.674;2023-12-28T15:17:24;100293.91;;;12.50;64.65
45323;BME280;31382;50.200;8.674;2023-12-28T15:22:26;100298.78;;;12.40;65.04
45323;BME280;31382;50.200;8.674;2023-12-28T15:27:28;100293.22;;;12.27;65.36
45323;BME280;31382;50.200;8.674;2023-12-28T15:32:29;100302.53;;;12.24;65.19
45323;BME280;31382;50.200;8.674;2023-12-28T15:37:31;100294.34;;;12.18;65.79
45323;BME280;31382;50.200;8.674;2023-12-28T15:42:33;100304.34;;;12.24;65.64
45323;BME280;31382;50.200;8.674;2023-12-28T15:47:36;100302.72;;;12.23;66.12
45323;BME280;31382;50.200;8.674;2023-12-28T15:52:38;100304.47;;;12.30;65.75
45323;BME280;31382;50.200;8.674;2023-12-28T15:57:39;100307.41;;;12.36;66.18
45323;BME280;31382;50.200;8.674;2023-12-28T16:02:41;100304.06;;;12.34;66.42
45323;BME280;31382;50.200;8.674;2023-12-28T16:07:42;100304.53;;;12.37;66.14
45323;BME280;31382;50.200;8.674;2023-12-28T16:12:43;100301.19;;;12.35;66.06
45323;BME280;31382;50.200;8.674;2023-12-28T16:17:45;100294.78;;;12.36;66.46
45323;BME280;31382;50.200;8.674;2023-12-28T16:22:48;100293.09;;;12.35;66.59
45323;BME280;31382;50.200;8.674;2023-12-28T16:27:49;100289.06;;;12.24;66.53
45323;BME280;31382;50.200;8.674;2023-12-28T16:32:51;100284.09;;;12.28;66.58
45323;BME280;31382;50.200;8.674;2023-12-28T16:37:52;100281.78;;;12.25;66.19
45323;BME280;31382;50.200;8.674;2023-12-28T16:42:54;100274.72;;;12.24;66.26
45323;BME280;31382;50.200;8.674;2023-12-28T16:47:56;100279.00;;;12.18;66.22
45323;BME280;31382;50.200;8.674;2023-12-28T16:52:58;100278.28;;;12.09;66.57
45323;BME280;31382;50.200;8.674;2023-12-28T16:57:59;100276.97;;;11.90;66.73
45323;BME280;31382;50.200;8.674;2023-12-28T17:03:03;100279.28;;;11.79;66.71
45323;BME280;31382;50.200;8.674;2023-12-28T17:08:05;100274.72;;;11.64;66.69
45323;BME280;31382;50.200;8.674;2023-12-28T17:13:10;100267.19;;;11.45;67.07
45323;BME280;31382;50.200;8.674;2023-12-28T17:18:12;100271.91;;;11.28;67.04
45323;BME280;31382;50.200;8.674;2023-12-28T17:23:24;100276.72;;;11.18;67.19
45323;BME280;31382;50.200;8.674;2023-12-28T17:28:27;100281.69;;;11.06;67.15
45323;BME280;31382;50.200;8.674;2023-12-28T17:33:32;100274.88;;;10.95;67.54
45323;BME280;31382;50.200;8.674;2023-12-28T17:38:34;100290.03;;;10.88;67.64
45323;BME280;31382;50.200;8.674;2023-12-28T17:43:39;100282.91;;;10.80;68.07
45323;BME280;31382;50.200;8.674;2023-12-28T17:48:45;100268.47;;;10.73;67.97
45323;BME280;31382;50.200;8.674;2023-12-28T17:53:48;100274.09;;;10.63;68.05
45323;BME280;31382;50.200;8.674;2023-12-28T17:58:50;100272.22;;;10.64;68.20
45323;BME280;31382;50.200;8.674;2023-12-28T18:03:51;100271.06;;;10.66;68.09
45323;BME280;31382;50.200;8.674;2023-12-28T18:08:52;100288.38;;;10.64;67.92
45323;BME280;31382;50.200;8.674;2023-12-28T18:13:54;100276.66;;;10.57;68.17
45323;BME280;31382;50.200;8.674;2023-12-28T18:18:56;100268.47;;;10.50;68.33
45323;BME280;31382;50.200;8.674;2023-12-28T18:24:01;100265.44;;;10.53;68.33
45323;BME280;31382;50.200;8.674;2023-12-28T18:29:02;100268.47;;;10.50;68.31
45323;BME280;31382;50.200;8.674;2023-12-28T18:34:03;100276.69;;;10.48;68.68
45323;BME280;31382;50.200;8.674;2023-12-28T18:39:05;100275.03;;;10.47;68.45
45323;BME280;31382;50.200;8.674;2023-12-28T18:44:07;100284.06;;;10.55;68.70
45323;BME280;31382;50.200;8.674;2023-12-28T18:49:08;100274.09;;;10.63;68.14
45323;BME280;31382;50.200;8.674;2023-12-28T18:54:10;100275.72;;;10.73;67.92
45323;BME280;31382;50.200;8.674;2023-12-28T18:59:11;100270.50;;;10.71;68.48
45323;BME280;31382;50.200;8.674;2023-12-28T19:04:12;100272.53;;;10.69;68.43
45323;BME280;31382;50.200;8.674;2023-12-28T19:09:14;100279.25;;;10.73;68.46
45323;BME280;31382;50.200;8.674;2023-12-28T19:14:15;100276.19;;;10.76;68.47
45323;BME280;31382;50.200;8.674;2023-12-28T19:19:17;100285.69;;;10.87;68.56
45323;BME280;31382;50.200;8.674;2023-12-28T19:24:19;100272.72;;;10.90;68.52
45323;BME280;31382;50.200;8.674;2023-12-28T19:29:20;100288.72;;;11.07;68.08
45323;BME280;31382;50.200;8.674;2023-12-28T19:34:22;100288.31;;;11.18;67.68
45323;BME280;31382;50.200;8.674;2023-12-28T19:39:23;100299.09;;;11.33;67.46
45323;BME280;31382;50.200;8.674;2023-12-28T19:44:25;100299.53;;;11.22;68.00
45323;BME280;31382;50.200;8.674;2023-12-28T19:49:26;100291.88;;;11.34;67.92
45323;BME280;31382;50.200;8.674;2023-12-28T19:54:28;100301.78;;;11.33;67.92
45323;BME280;31382;50.200;8.674;2023-12-28T19:59:30;100295.41;;;11.34;67.71
45323;BME280;31382;50.200;8.674;2023-12-28T20:04:31;100297.13;;;11.27;68.16
45323;BME280;31382;50.200;8.674;2023-12-28T20:09:36;100289.88;;;11.27;68.40
45323;BME280;31382;50.200;8.674;2023-12-28T20:14:37;100282.84;;;11.26;68.41
45323;BME280;31382;50.200;8.674;2023-12-28T20:19:38;100280.88;;;11.20;68.52
45323;BME280;31382;50.200;8.674;2023-12-28T20:24:40;100286.75;;;11.24;68.37
45323;BME280;31382;50.200;8.674;2023-12-28T20:29:42;100272.44;;;11.23;68.41
45323;BME280;31382;50.200;8.674;2023-12-28T20:34:43;100269.59;;;11.40;67.98
45323;BME280;31382;50.200;8.674;2023-12-28T20:39:46;100270.91;;;11.59;67.37
45323;BME280;31382;50.200;8.674;2023-12-28T20:44:48;100265.63;;;11.65;67.29
45323;BME280;31382;50.200;8.674;2023-12-28T20:49:49;100264.13;;;11.63;67.63
45323;BME280;31382;50.200;8.674;2023-12-28T20:54:53;100271.03;;;11.65;67.31
45323;BME280;31382;50.200;8.674;2023-12-28T20:59:54;100264.25;;;11.69;67.09
45323;BME280;31382;50.200;8.674;2023-12-28T21:04:56;100251.97;;;11.67;67.21
45323;BME280;31382;50.200;8.674;2023-12-28T21:09:57;100254.66;;;11.67;67.80
45323;BME280;31382;50.200;8.674;2023-12-28T21:14:59;100268.97;;;11.52;68.13
45323;BME280;31382;50.200;8.674;2023-12-28T21:20:00;100258.84;;;11.55;68.04
45323;BME280;31382;50.200;8.674;2023-12-28T21:25:03;100263.09;;;11.49;68.20
45323;BME280;31382;50.200;8.674;2023-12-28T21:30:05;100264.22;;;11.55;68.13
45323;BME280;31382;50.200;8.674;2023-12-28T21:35:08;100261.06;;;11.51;68.30
45323;BME280;31382;50.200;8.674;2023-12-28T21:40:11;100258.38;;;11.51;68.56
45323;BME280;31382;50.200;8.674;2023-12-28T21:45:13;100255.88;;;11.49;68.80
45323;BME280;31382;50.200;8.674;2023-12-28T21:50:14;100253.84;;;11.51;68.94
45323;BME280;31382;50.200;8.674;2023-12-28T21:55:16;100245.94;;;11.50;68.62
45323;BME280;31382;50.200;8.674;2023-12-28T22:00:17;100252.16;;;11.50;68.75
45323;BME280;31382;50.200;8.674;2023-12-28T22:05:19;100250.41;;;11.58;68.47
45323;BME280;31382;50.200;8.674;2023-12-28T22:10:20;100251.16;;;11.66;68.63
45323;BME280;31382;50.200;8.674;2023-12-28T22:15:22;100254.84;;;11.50;68.65
45323;BME280;31382;50.200;8.674;2023-12-28T22:20:23;100262.19;;;11.57;68.67
45323;BME280;31382;50.200;8.674;2023-12-28T22:25:25;100259.22;;;11.51;69.18
45323;BME280;31382;50.200;8.674;2023-12-28T22:30:26;100256.31;;;11.53;68.89
45323;BME280;31382;50.200;8.674;2023-12-28T22:35:28;100241.97;;;11.46;69.30
45323;BME280;31382;50.200;8.674;2023-12-28T22:40:29;100255.88;;;11.49;69.27
45323;BME280;31382;50.200;8.674;2023-12-28T22:45:31;100250.28;;;11.51;69.42
45323;BME280;31382;50.200;8.674;2023-12-28T22:50:32;100249.13;;;11.54;69.63
45323;BME280;31382;50.200;8.674;2023-12-28T22:55:34;100246.59;;;11.52;69.87
45323;BME280;31382;50.200;8.674;2023-12-28T23:00:35;100244.56;;;11.54;69.71
45323;BME280;31382;50.200;8.674;2023-12-28T23:05:37;100249.13;;;11.54;69.72
45323;BME280;31382;50.200;8.674;2023-12-28T23:10:38;100241.50;;;11.57;69.77
45323;BME280;31382;50.200;8.674;2023-12-28T23:15:44;100241.94;;;11.61;69.66
45323;BME280;31382;50.200;8.674;2023-12-28T23:20:45;100232.41;;;11.58;69.47
45323;BME280;31382;50.200;8.674;2023-12-28T23:25:47;100234.34;;;11.64;69.31
45323;BME280;31382;50.200;8.674;2023-12-28T23:30:48;100223.75;;;11.78;69.11
45323;BME280;31382;50.200;8.674;2023-12-28T23:35:50;100209.19;;;11.72;69.38
45323;BME280;31382;50.200;8.674;2023-12-28T23:40:51;100203.31;;;11.68;69.36
45323;BME280;31382;50.200;8.674;2023-12-28T23:45:52;100198.13;;;11.67;69.78
45323;BME280;31382;50.200;8.674;2023-12-28T23:50:55;100196.00;;;11.62;69.64
45323;BME280;31382;50.200;8.674;2023-12-28T23:55:56;100195.44;;;11.67;69.28
